Time;durP1;ratioP1;P1;durP2;ratioP2;P2;SDS_P1;SDS_P2;PMS_P1;PMS_P2;Temp;Humidity;BMP_temperature;BMP_pressure;BME280_temperature;BME280_humidity;BME280_pressure;Samples;Min_cycle;Max_cycle;Signal;HPM_P1;HPM_P2
2022/05/04 00:01:24;;;;;;;10.35;4.43;;;;;;;17.23;51.30;98632.88;4486515;31;20145;-86
2022/05/04 00:03:49;;;;;;;11.65;4.30;;;;;;;17.28;51.17;98635.13;4486271;31;20092;-86
2022/05/04 00:06:15;;;;;;;11.73;4.87;;;;;;;17.25;51.21;98638.06;4486164;31;20127;-86
2022/05/04 00:08:40;;;;;;;9.55;4.68;;;;;;;17.25;51.18;98636.25;4486235;31;20124;-86
2022/05/04 00:11:06;;;;;;;9.57;4.57;;;;;;;17.25;51.19;98641.56;4486246;31;20093;-86
2022/05/04 00:13:32;;;;;;;9.82;4.12;;;;;;;17.25;51.20;98646.06;4486245;31;20115;-85
2022/05/04 00:16:01;;;;;;;9.52;4.15;;;;;;;17.25;51.25;98632.75;4486077;31;20130;-85
2022/05/04 00:18:29;;;;;;;9.40;4.37;;;;;;;17.24;51.41;98636.37;4486078;31;20147;-85
2022/05/04 00:20:55;;;;;;;10.70;4.45;;;;;;;17.23;51.57;98640.00;4484863;32;20373;-87
2022/05/04 00:23:21;;;;;;;9.25;4.28;;;;;;;17.18;51.71;98637.72;4484783;32;20141;-86
2022/05/04 00:25:46;;;;;;;9.52;4.30;;;;;;;17.24;51.40;98639.03;4486014;32;20111;-86
2022/05/04 00:28:12;;;;;;;9.90;3.80;;;;;;;17.20;51.27;98642.94;4485919;31;20161;-85
2022/05/04 00:30:37;;;;;;;8.82;3.87;;;;;;;17.23;50.91;98635.53;4485860;31;20092;-86
2022/05/04 00:33:02;;;;;;;9.85;4.03;;;;;;;17.16;50.84;98634.34;4484586;32;20111;-86
2022/05/04 00:35:28;;;;;;;10.18;3.87;;;;;;;17.21;50.79;98633.97;4486082;31;20089;-85
2022/05/04 00:37:53;;;;;;;10.18;3.83;;;;;;;17.23;50.73;98629.34;4485777;31;20096;-83
2022/05/04 00:40:19;;;;;;;11.57;4.10;;;;;;;17.20;50.72;98640.28;4486055;31;20156;-85
2022/05/04 00:42:44;;;;;;;8.50;4.03;;;;;;;17.21;50.51;98634.81;4486059;31;20118;-85
2022/05/04 00:45:10;;;;;;;10.98;4.40;;;;;;;17.24;50.35;98639.88;4486042;31;20092;-85
2022/05/04 00:47:36;;;;;;;9.13;4.03;;;;;;;17.18;50.41;98635.06;4485981;31;20444;-85
2022/05/04 00:50:04;;;;;;;9.98;4.07;;;;;;;17.15;50.41;98645.13;4485845;31;20162;-84
2022/05/04 00:52:32;;;;;;;10.48;4.25;;;;;;;17.16;50.39;98637.03;4485566;31;20088;-85
2022/05/04 00:54:57;;;;;;;8.95;4.03;;;;;;;17.16;50.25;98641.50;4485563;31;20080;-85
2022/05/04 01:00:08;;;;;;;8.82;3.78;;;;;;;17.14;50.17;98651.44;4485633;32;20169;-85
2022/05/04 01:02:33;;;;;;;9.10;3.72;;;;;;;17.15;50.72;98651.28;4487809;32;20156;-86
2022/05/04 01:04:59;;;;;;;9.23;3.80;;;;;;;17.13;50.88;98647.06;4488150;31;20088;-86
2022/05/04 01:07:24;;;;;;;10.60;4.65;;;;;;;17.09;50.78;98643.81;4488147;31;20140;-87
2022/05/04 01:09:50;;;;;;;10.48;4.40;;;;;;;17.09;50.75;98647.34;4488049;31;20106;-86
2022/05/04 01:12:15;;;;;;;10.68;4.22;;;;;;;17.10;50.77;98649.03;4488044;31;20092;-86
2022/05/04 01:14:41;;;;;;;11.25;4.20;;;;;;;17.14;50.90;98651.44;4486695;32;20127;-86
2022/05/04 01:17:07;;;;;;;11.12;4.20;;;;;;;17.06;51.51;98652.09;4488064;31;20381;-87
2022/05/04 01:19:32;;;;;;;12.55;5.12;;;;;;;16.99;51.73;98656.22;4487720;31;20096;-86
2022/05/04 01:21:57;;;;;;;9.90;4.40;;;;;;;16.83;52.06;98661.97;4487532;31;20139;-86
2022/05/04 01:24:23;;;;;;;9.80;4.35;;;;;;;16.87;52.21;98658.91;4487969;31;20092;-86
2022/05/04 01:26:48;;;;;;;11.05;4.47;;;;;;;16.85;52.48;98654.72;4488065;31;20104;-87
2022/05/04 01:29:14;;;;;;;10.50;4.47;;;;;;;16.77;52.69;98651.81;4487937;31;20167;-86
2022/05/04 01:31:40;;;;;;;9.60;4.28;;;;;;;16.79;52.69;98649.88;4487963;31;20352;-87
2022/05/04 01:34:06;;;;;;;11.10;4.80;;;;;;;16.77;52.73;98652.66;4488014;31;20092;-86
2022/05/04 01:36:34;;;;;;;11.77;4.65;;;;;;;16.71;52.32;98648.66;4487904;31;20134;-86
2022/05/04 01:38:59;;;;;;;10.40;4.87;;;;;;;16.65;52.26;98641.19;4487709;31;20127;-85
2022/05/04 01:44:09;;;;;;;9.98;4.68;;;;;;;16.68;52.50;98642.75;4487643;32;20122;-86
2022/05/04 01:46:34;;;;;;;11.93;5.40;;;;;;;16.71;52.51;98642.50;4487495;31;20096;-86
2022/05/04 01:49:00;;;;;;;10.23;5.22;;;;;;;16.71;52.65;98635.38;4487612;31;20105;-86
2022/05/04 01:51:25;;;;;;;13.25;6.15;;;;;;;16.68;52.78;98634.78;4487454;31;20088;-86
2022/05/04 01:53:51;;;;;;;12.82;6.30;;;;;;;16.68;52.78;98640.94;4487460;31;20144;-86
2022/05/04 01:56:16;;;;;;;13.80;6.70;;;;;;;16.69;52.81;98633.81;4487417;31;20140;-87
2022/05/04 01:58:42;;;;;;;11.80;6.15;;;;;;;16.73;52.80;98639.72;4487412;31;20107;-86
2022/05/04 02:01:07;;;;;;;12.80;6.25;;;;;;;16.69;52.93;98634.66;4487505;32;20126;-87
2022/05/04 02:03:33;;;;;;;13.27;6.62;;;;;;;16.73;52.90;98637.03;4487508;31;20114;-85
2022/05/04 02:05:59;;;;;;;14.48;6.62;;;;;;;16.69;53.06;98637.31;4486332;32;20112;-85
2022/05/04 02:08:25;;;;;;;12.57;6.72;;;;;;;16.75;53.04;98630.66;4486223;32;20262;-85
2022/05/04 02:10:50;;;;;;;14.55;6.22;;;;;;;16.77;52.90;98628.69;4486186;32;20110;-85
2022/05/04 02:13:15;;;;;;;11.82;6.57;;;;;;;16.78;52.92;98632.19;4487185;31;20080;-85
2022/05/04 02:15:41;;;;;;;12.00;6.20;;;;;;;16.75;52.85;98622.66;4487404;31;20140;-85
2022/05/04 02:18:06;;;;;;;11.90;6.00;;;;;;;16.80;52.87;98622.28;4487219;31;20145;-85
2022/05/04 02:20:32;;;;;;;11.70;5.65;;;;;;;16.77;52.92;98619.88;4487300;32;20099;-85
2022/05/04 02:22:57;;;;;;;10.73;5.35;;;;;;;16.75;52.69;98622.66;4487335;31;20423;-85
2022/05/04 02:25:23;;;;;;;11.18;5.55;;;;;;;16.68;52.75;98627.63;4487294;31;20092;-85
2022/05/04 02:27:48;;;;;;;11.48;4.90;;;;;;;16.71;52.47;98631.88;4487167;31;20440;-85
2022/05/04 02:30:13;;;;;;;14.00;4.87;;;;;;;16.70;52.36;98630.19;4487181;31;20141;-85
2022/05/04 02:32:39;;;;;;;10.80;4.95;;;;;;;16.67;52.39;98627.78;4487239;32;20084;-85
2022/05/04 02:37:57;;;;;;;11.30;4.32;;;;;;;16.72;52.60;98628.22;4487067;32;20285;-87
2022/05/04 02:40:23;;;;;;;9.93;4.60;;;;;;;16.71;53.17;98629.22;4487287;31;20107;-87
2022/05/04 02:42:49;;;;;;;10.55;4.10;;;;;;;16.40;53.80;98642.34;4487202;31;20096;-87
2022/05/04 02:45:14;;;;;;;11.38;4.37;;;;;;;16.51;53.55;98646.78;4487201;31;20363;-84
2022/05/04 02:47:40;;;;;;;10.45;4.53;;;;;;;16.45;53.70;98648.12;4487339;31;20092;-84
2022/05/04 02:50:06;;;;;;;10.55;4.35;;;;;;;16.43;53.86;98643.91;4487157;31;20089;-84
2022/05/04 02:52:32;;;;;;;11.48;4.97;;;;;;;16.44;53.84;98642.97;4487475;31;20096;-84
2022/05/04 02:54:57;;;;;;;11.35;5.12;;;;;;;16.41;53.88;98643.19;4487173;31;20337;-84
2022/05/04 02:57:23;;;;;;;14.10;5.43;;;;;;;16.37;53.92;98644.41;4486994;31;20084;-85
2022/05/04 02:59:48;;;;;;;11.77;5.87;;;;;;;16.35;54.00;98647.19;4485814;32;20150;-84
2022/05/04 03:02:29;;;;;;;13.13;6.25;;;;;;;16.35;54.02;98651.66;4487001;31;20092;-84
2022/05/04 03:05:08;;;;;;;10.80;4.78;;;;;;;16.36;53.96;98640.06;4486126;32;20120;-86
2022/05/04 03:07:34;;;;;;;11.55;4.32;;;;;;;16.39;53.86;98647.78;4487131;31;20105;-87
2022/05/04 03:09:59;;;;;;;10.27;5.03;;;;;;;16.35;53.71;98641.03;4487143;31;20163;-86
2022/05/04 03:12:26;;;;;;;9.65;4.47;;;;;;;16.36;53.52;98642.72;4487216;31;20141;-84
2022/05/04 03:14:51;;;;;;;10.35;4.55;;;;;;;16.37;53.45;98641.75;4487256;31;20161;-84
2022/05/04 03:17:17;;;;;;;11.00;4.62;;;;;;;16.37;53.50;98644.41;4487169;31;20117;-84
2022/05/04 03:19:44;;;;;;;9.98;4.70;;;;;;;16.38;53.53;98644.28;4487206;31;20097;-84
2022/05/04 03:22:10;;;;;;;10.68;4.32;;;;;;;16.38;53.72;98646.97;4487014;31;20091;-85
2022/05/04 03:24:35;;;;;;;11.38;5.22;;;;;;;16.41;53.82;98637.88;4486342;31;20402;-85
2022/05/04 03:27:01;;;;;;;10.68;4.72;;;;;;;16.44;53.71;98638.47;4487127;32;20123;-86
2022/05/04 03:29:26;;;;;;;10.35;4.68;;;;;;;16.44;53.73;98643.78;4486773;31;20420;-85
2022/05/04 03:31:52;;;;;;;11.60;4.93;;;;;;;16.44;53.77;98648.28;4485428;32;20080;-86
2022/05/04 03:34:18;;;;;;;11.50;4.97;;;;;;;16.44;53.70;98651.78;4486854;32;20126;-85
2022/05/04 03:36:44;;;;;;;11.40;4.75;;;;;;;16.48;53.42;98647.88;4486646;31;20497;-85
2022/05/04 03:39:09;;;;;;;11.12;4.47;;;;;;;16.56;53.18;98646.44;4486522;31;20085;-84
2022/05/04 03:41:35;;;;;;;11.27;5.15;;;;;;;16.55;53.28;98652.69;4486608;31;20080;-87
2022/05/04 03:44:00;;;;;;;10.27;4.47;;;;;;;16.58;53.19;98661.28;4486549;31;20093;-86
2022/05/04 03:46:27;;;;;;;10.85;5.18;;;;;;;16.60;52.99;98663.81;4486584;31;20119;-86
2022/05/04 03:48:58;;;;;;;11.35;4.80;;;;;;;16.67;52.73;98647.25;4486726;31;20092;-86
2022/05/04 03:51:23;;;;;;;11.77;4.53;;;;;;;16.73;52.63;98655.66;4486438;31;20148;-86
2022/05/04 03:53:50;;;;;;;11.50;5.12;;;;;;;16.80;52.65;98656.84;4485175;32;20134;-86
2022/05/04 03:56:17;;;;;;;10.80;4.55;;;;;;;16.77;52.52;98657.97;4486755;31;20436;-87
2022/05/04 03:58:43;;;;;;;10.95;5.40;;;;;;;16.87;52.58;98661.59;4485419;32;20741;-86
2022/05/04 04:01:08;;;;;;;10.07;5.03;;;;;;;16.99;52.46;98667.69;4486566;31;20111;-86
2022/05/04 04:03:34;;;;;;;10.85;5.00;;;;;;;17.16;51.90;98660.13;4486336;31;20088;-86
2022/05/04 04:05:59;;;;;;;10.45;4.65;;;;;;;17.31;51.54;98669.50;4486258;32;20152;-86
2022/05/04 04:08:25;;;;;;;11.25;5.35;;;;;;;17.40;51.72;98670.53;4486381;31;20084;-86
2022/05/04 04:10:51;;;;;;;11.63;4.87;;;;;;;17.17;52.12;98676.00;4486214;31;20106;-86
2022/05/04 04:13:16;;;;;;;10.20;4.57;;;;;;;17.34;52.11;98676.38;4486244;31;20119;-86
2022/05/04 04:15:42;;;;;;;11.50;5.40;;;;;;;17.38;52.20;98677.81;4486177;31;20114;-86
2022/05/04 04:18:08;;;;;;;10.02;4.50;;;;;;;17.40;52.25;98675.84;4485947;31;20101;-86
2022/05/04 04:23:19;;;;;;;10.68;4.20;;;;;;;17.47;52.63;98669.88;4486124;32;20506;-89
2022/05/04 04:25:44;;;;;;;9.13;4.37;;;;;;;17.44;52.82;98678.16;4486198;31;20096;-89
2022/05/04 04:28:10;;;;;;;10.43;4.60;;;;;;;17.47;52.71;98683.19;4486111;31;20484;-88
2022/05/04 04:30:39;;;;;;;10.65;4.50;;;;;;;17.51;52.77;98683.78;4486155;31;20386;-84
2022/05/04 04:33:05;;;;;;;10.43;4.28;;;;;;;17.47;52.67;98685.84;4486106;31;20144;-90
2022/05/04 04:35:31;;;;;;;10.77;4.70;;;;;;;17.47;52.57;98691.19;4485204;32;20108;-93
2022/05/04 04:37:57;;;;;;;9.98;4.53;;;;;;;17.49;52.61;98683.91;4488017;31;20088;-90
2022/05/04 04:40:22;;;;;;;10.25;4.47;;;;;;;17.56;52.39;98692.25;4488317;31;20111;-92
2022/05/04 04:42:47;;;;;;;9.20;4.15;;;;;;;17.62;52.28;98693.53;4488387;31;20101;-88
2022/05/04 04:45:13;;;;;;;10.57;4.68;;;;;;;17.62;52.26;98696.19;4488245;31;20088;-86
2022/05/04 04:47:38;;;;;;;11.68;4.68;;;;;;;17.57;52.05;98693.91;4488292;31;20127;-87
2022/05/04 04:50:04;;;;;;;10.55;4.15;;;;;;;17.32;52.69;98696.97;4488155;32;20096;-84
2022/05/04 04:52:29;;;;;;;10.00;4.60;;;;;;;17.63;52.66;98687.22;4488218;31;20501;-84
2022/05/04 04:54:55;;;;;;;10.13;4.72;;;;;;;17.61;52.43;98695.34;4488208;31;20088;-88
2022/05/04 04:57:20;;;;;;;11.82;4.68;;;;;;;17.78;52.63;98687.72;4486792;32;20115;-88
2022/05/04 04:59:48;;;;;;;10.43;4.90;;;;;;;17.68;53.15;98693.00;4488189;31;20341;-87
2022/05/04 05:02:14;;;;;;;10.55;4.90;;;;;;;17.85;53.16;98691.59;4488120;31;20116;-86
2022/05/04 05:04:39;;;;;;;12.98;4.65;;;;;;;17.84;52.95;98689.91;4486933;32;20130;-86
2022/05/04 05:07:04;;;;;;;9.85;4.12;;;;;;;18.08;52.86;98686.94;4493946;31;20153;-86
2022/05/04 05:09:30;;;;;;;11.38;4.72;;;;;;;18.30;53.10;98691.22;4490305;31;20093;-84
2022/05/04 05:11:55;;;;;;;11.35;4.57;;;;;;;18.43;53.17;98677.66;4487937;32;20118;-86
2022/05/04 05:17:05;;;;;;;9.60;4.65;;;;;;;18.86;52.18;98681.84;4487713;32;20175;-88
2022/05/04 05:19:31;;;;;;;11.82;4.50;;;;;;;19.10;51.12;98685.91;4473213;32;20092;-86
2022/05/04 05:21:56;;;;;;;10.23;4.82;;;;;;;19.24;50.51;98686.34;4473532;32;20154;-88
2022/05/04 05:24:21;;;;;;;10.48;5.10;;;;;;;19.47;49.84;98685.19;4487967;32;20092;-88
2022/05/04 05:26:47;;;;;;;10.57;4.60;;;;;;;19.59;49.62;98695.56;4487807;32;20112;-89
2022/05/04 05:29:12;;;;;;;10.25;4.25;;;;;;;19.60;49.31;98694.56;4473174;32;20097;-88
2022/05/04 05:31:38;;;;;;;11.25;4.78;;;;;;;19.76;50.02;98699.38;4497539;31;20096;-87
2022/05/04 05:34:04;;;;;;;11.35;4.68;;;;;;;19.86;46.32;98702.03;4503642;31;20084;-87
2022/05/04 05:36:29;;;;;;;10.82;4.97;;;;;;;19.69;45.56;98706.25;4488962;31;20118;-88
2022/05/04 05:38:55;;;;;;;8.90;4.00;;;;;;;19.67;45.54;98707.38;4498392;31;20088;-87
2022/05/04 05:41:23;;;;;;;11.02;4.45;;;;;;;20.05;44.96;98706.47;4488266;31;20108;-87
2022/05/04 05:43:49;;;;;;;10.38;4.32;;;;;;;20.29;45.14;98708.62;4480725;31;20111;-84
2022/05/04 05:46:14;;;;;;;8.95;4.40;;;;;;;20.15;45.70;98695.75;4494574;31;20130;-82
2022/05/04 05:48:39;;;;;;;10.10;4.18;;;;;;;20.43;44.45;98707.28;4494313;31;20085;-81
2022/05/04 05:51:05;;;;;;;11.90;4.95;;;;;;;20.66;44.30;98704.25;4489435;31;20076;-78
2022/05/04 05:53:31;;;;;;;11.98;5.43;;;;;;;20.68;47.58;98707.63;4486912;31;20283;-80
2022/05/04 05:55:57;;;;;;;13.52;5.82;;;;;;;20.80;47.46;98709.94;4487063;31;20446;-81
2022/05/04 05:58:22;;;;;;;12.68;5.45;;;;;;;20.90;47.68;98717.91;4487434;31;20128;-80
2022/05/04 06:00:49;;;;;;;11.57;5.25;;;;;;;20.92;47.64;98715.06;4486266;32;20104;-80
2022/05/04 06:03:15;;;;;;;14.85;5.65;;;;;;;21.01;46.85;98722.19;4487449;31;20107;-79
2022/05/04 06:05:41;;;;;;;11.88;5.40;;;;;;;21.18;46.06;98718.66;4487388;31;20096;-81
2022/05/04 06:08:09;;;;;;;12.80;5.60;;;;;;;21.15;44.83;98723.50;4486215;32;20103;-79
2022/05/04 06:10:35;;;;;;;11.43;5.20;;;;;;;21.36;44.12;98725.84;4488981;31;20116;-89
2022/05/04 06:13:01;;;;;;;15.38;6.62;;;;;;;21.32;42.93;98717.28;4479590;31;20104;-90
2022/05/04 06:15:26;;;;;;;13.75;6.45;;;;;;;21.46;43.78;98724.00;4495338;31;20091;-80
2022/05/04 06:17:52;;;;;;;14.73;6.82;;;;;;;21.57;43.87;98734.44;4493128;31;20084;-81
2022/05/04 06:20:17;;;;;;;12.82;6.60;;;;;;;21.71;43.44;98743.78;4483390;32;20159;-80
2022/05/04 06:22:42;;;;;;;14.38;7.43;;;;;;;21.90;43.23;98736.53;4487245;32;20344;-81
2022/05/04 06:25:08;;;;;;;14.32;7.78;;;;;;;21.89;42.54;98740.22;4486792;32;20091;-81
2022/05/04 06:27:34;;;;;;;15.80;8.07;;;;;;;21.92;42.50;98738.09;4486741;32;20084;-81
2022/05/04 06:35:27;;;;;;;14.35;8.07;;;;;;;22.24;42.61;98738.44;4487324;32;20118;-81
2022/05/04 06:37:53;;;;;;;14.90;8.68;;;;;;;22.25;42.15;98737.44;4472538;32;20061;-81
2022/05/04 06:40:20;;;;;;;15.00;8.32;;;;;;;22.17;42.65;98733.72;4487203;32;20115;-81
2022/05/04 06:42:45;;;;;;;13.50;7.72;;;;;;;22.14;42.85;98739.38;4473238;32;20122;-81
2022/05/04 06:45:11;;;;;;;16.30;7.82;;;;;;;22.16;42.25;98740.06;4473048;32;20080;-81
2022/05/04 06:47:36;;;;;;;15.20;7.20;;;;;;;22.09;41.30;98739.00;4487183;32;20098;-81
2022/05/04 06:50:03;;;;;;;16.12;7.68;;;;;;;22.13;41.00;98739.53;4487137;32;20085;-81
2022/05/04 06:52:32;;;;;;;13.90;7.95;;;;;;;22.22;40.41;98738.59;4472990;32;20126;-81
2022/05/04 06:54:58;;;;;;;18.62;7.47;;;;;;;22.31;40.38;98744.84;4472668;32;20089;-81
2022/05/04 06:57:23;;;;;;;14.15;6.78;;;;;;;22.41;40.57;98745.59;4472714;32;20080;-81
2022/05/04 06:59:49;;;;;;;14.27;7.45;;;;;;;22.64;39.87;98740.50;4485813;32;20076;-81
2022/05/04 07:02:15;;;;;;;15.57;7.35;;;;;;;22.90;39.67;98737.72;4472848;32;20119;-81
2022/05/04 07:04:41;;;;;;;13.00;7.07;;;;;;;23.19;39.29;98736.47;4487080;32;20106;-81
2022/05/04 07:07:06;;;;;;;13.20;7.00;;;;;;;23.22;38.80;98737.97;4487042;32;20080;-81
2022/05/04 07:09:33;;;;;;;11.90;6.70;;;;;;;23.32;38.07;98734.13;4472775;32;20367;-81
2022/05/04 07:11:59;;;;;;;14.03;7.60;;;;;;;23.45;38.54;98724.72;4487064;32;20092;-83
2022/05/04 07:14:25;;;;;;;15.55;7.37;;;;;;;23.70;38.50;98734.47;4472674;32;20110;-84
2022/05/04 07:16:50;;;;;;;12.02;6.75;;;;;;;23.93;37.85;98742.72;4486824;32;20088;-81
2022/05/04 07:19:16;;;;;;;14.40;7.90;;;;;;;24.06;38.01;98735.97;4486774;32;20096;-81
2022/05/04 07:21:42;;;;;;;14.23;7.57;;;;;;;24.01;37.89;98749.09;4472628;32;20096;-81
2022/05/04 07:24:08;;;;;;;14.25;7.22;;;;;;;24.05;37.54;98737.81;4486863;32;20088;-81
2022/05/04 07:26:33;;;;;;;12.50;7.05;;;;;;;24.22;37.59;98743.16;4486746;32;20103;-81
2022/05/04 07:28:59;;;;;;;13.32;6.93;;;;;;;24.31;37.57;98744.81;4486804;32;20092;-81
2022/05/04 07:31:24;;;;;;;12.85;6.80;;;;;;;24.25;37.03;98749.03;4486776;32;20111;-81
2022/05/04 07:33:50;;;;;;;13.25;6.82;;;;;;;24.16;37.15;98752.75;4472473;32;20454;-81
2022/05/04 07:36:15;;;;;;;13.55;6.97;;;;;;;24.25;37.40;98750.91;4486599;32;20110;-81
2022/05/04 07:38:41;;;;;;;14.65;7.60;;;;;;;24.31;36.90;98750.19;4486412;32;20096;-81
2022/05/04 07:43:50;;;;;;;14.20;6.90;;;;;;;24.26;37.12;98744.50;4474585;32;20167;-81
2022/05/04 07:46:16;;;;;;;14.82;7.20;;;;;;;24.20;37.83;98753.25;4472331;32;20084;-81
2022/05/04 07:48:41;;;;;;;14.15;6.87;;;;;;;24.20;38.05;98747.88;4486476;32;20428;-81
2022/05/04 07:51:06;;;;;;;13.70;6.90;;;;;;;24.29;37.97;98752.22;4486360;32;20106;-81
2022/05/04 07:53:32;;;;;;;16.12;7.87;;;;;;;24.24;37.83;98750.06;4486445;32;20076;-81
2022/05/04 07:55:57;;;;;;;13.77;7.50;;;;;;;24.36;37.86;98746.97;4472227;32;20115;-81
2022/05/04 07:58:23;;;;;;;13.15;7.37;;;;;;;24.39;37.80;98750.16;4486334;32;20136;-81
2022/05/04 08:06:16;;;;;;;12.88;6.60;;;;;;;24.27;38.35;98755.09;4486348;32;20103;-81
2022/05/04 08:08:41;;;;;;;11.25;6.20;;;;;;;24.22;37.96;98760.16;4486233;32;20092;-81
2022/05/04 08:11:07;;;;;;;12.15;5.53;;;;;;;24.30;38.29;98760.13;4487694;32;20480;-81
2022/05/04 08:13:32;;;;;;;12.63;5.65;;;;;;;24.30;37.77;98762.00;4488134;32;20076;-81
2022/05/04 08:15:58;;;;;;;11.35;5.03;;;;;;;24.19;38.22;98765.87;4488262;32;20107;-81
2022/05/04 08:18:25;;;;;;;12.45;5.82;;;;;;;24.25;37.88;98762.50;4488408;32;20238;-81
2022/05/04 08:20:51;;;;;;;11.15;5.40;;;;;;;24.24;38.31;98760.84;4488232;32;20107;-81
2022/05/04 08:23:16;;;;;;;10.75;5.10;;;;;;;24.20;37.53;98766.72;4488198;32;20096;-81
2022/05/04 08:25:42;;;;;;;12.70;5.53;;;;;;;24.03;36.77;98765.91;4488099;32;20103;-81
2022/05/04 08:28:07;;;;;;;12.05;5.30;;;;;;;24.23;35.73;98767.22;4474019;32;20184;-81
2022/05/04 08:30:33;;;;;;;11.77;4.80;;;;;;;24.17;36.27;98765.22;4488136;32;20329;-82
2022/05/04 08:32:59;;;;;;;12.65;6.10;;;;;;;24.24;36.67;98763.53;4488144;32;20089;-83
2022/05/04 08:35:24;;;;;;;10.30;5.07;;;;;;;24.16;36.29;98774.28;4488073;32;20149;-81
2022/05/04 08:37:49;;;;;;;12.10;5.05;;;;;;;24.18;35.85;98776.81;4487771;32;20092;-81
2022/05/04 08:40:15;;;;;;;8.52;4.07;;;;;;;24.23;34.89;98777.97;4488000;32;20081;-81
2022/05/04 08:42:42;;;;;;;9.57;3.87;;;;;;;24.32;34.85;98776.97;4488047;32;20333;-81
2022/05/04 08:45:11;;;;;;;9.52;4.10;;;;;;;24.45;33.83;98778.25;4473641;32;20080;-81
2022/05/04 08:47:39;;;;;;;9.57;4.07;;;;;;;24.53;33.65;98779.13;4487993;32;20115;-81
2022/05/04 08:50:09;;;;;;;9.55;4.28;;;;;;;24.55;32.95;98778.09;4487959;32;20157;-81
2022/05/04 08:52:35;;;;;;;8.15;3.58;;;;;;;24.60;32.57;98781.13;4473863;32;20102;-81
2022/05/04 08:55:01;;;;;;;10.18;3.58;;;;;;;24.59;33.48;98782.97;4473647;32;20510;-81
2022/05/04 08:57:27;;;;;;;9.20;3.50;;;;;;;24.63;32.08;98775.41;4473371;32;20089;-81
2022/05/04 08:59:53;;;;;;;9.25;3.50;;;;;;;24.48;32.77;98773.37;4487841;32;20115;-81
2022/05/04 09:02:19;;;;;;;8.20;3.30;;;;;;;24.49;32.51;98780.44;4487923;32;20088;-81
2022/05/04 09:04:45;;;;;;;9.50;2.95;;;;;;;24.51;32.41;98775.75;4473597;32;20089;-82
2022/05/04 09:07:24;;;;;;;8.00;3.08;;;;;;;24.23;31.74;98782.53;4473675;32;20356;-82
2022/05/04 09:09:51;;;;;;;7.03;2.92;;;;;;;24.08;31.18;98779.69;4473421;32;20092;-82
2022/05/04 09:12:16;;;;;;;9.70;3.10;;;;;;;23.78;30.34;98784.78;4487823;32;20151;-82
2022/05/04 09:14:43;;;;;;;7.15;3.15;;;;;;;23.96;30.71;98781.06;4473536;32;20077;-82
2022/05/04 09:17:10;;;;;;;8.68;3.50;;;;;;;23.84;31.09;98781.41;4473548;32;20097;-81
2022/05/04 09:19:35;;;;;;;8.55;2.87;;;;;;;23.85;31.11;98771.47;4460440;32;20104;-81
2022/05/04 09:22:01;;;;;;;8.07;3.10;;;;;;;24.05;31.32;98780.03;4487443;32;20110;-81
2022/05/04 09:24:28;;;;;;;8.10;2.95;;;;;;;24.09;29.05;98776.00;4487986;32;20098;-81
2022/05/04 09:26:56;;;;;;;8.32;3.10;;;;;;;24.07;30.67;98773.47;4488007;32;20089;-81
2022/05/04 09:29:33;;;;;;;8.30;2.67;;;;;;;24.35;30.50;98773.06;4473812;32;20104;-81
2022/05/04 09:31:58;;;;;;;7.97;2.40;;;;;;;24.49;29.71;98774.19;4473781;32;20080;-81
2022/05/04 09:34:33;;;;;;;6.40;2.58;;;;;;;24.62;29.88;98777.22;4473558;32;20359;-81
2022/05/04 09:45:34;;;;;;;8.35;2.95;;;;;;;24.92;30.06;98769.38;4475657;32;20149;-81
2022/05/04 09:47:59;;;;;;;6.37;2.72;;;;;;;25.07;30.06;98759.50;4473226;32;20153;-81
2022/05/04 09:50:26;;;;;;;8.50;3.00;;;;;;;25.12;30.17;98773.28;4473139;32;20096;-81
2022/05/04 09:52:53;;;;;;;8.63;3.08;;;;;;;25.05;30.62;98772.31;4473277;32;20111;-82
2022/05/04 09:55:24;;;;;;;6.40;2.87;;;;;;;24.81;31.06;98777.84;4487476;32;20126;-82
2022/05/04 09:57:49;;;;;;;7.90;3.12;;;;;;;24.87;31.70;98777.12;4487465;32;20107;-81
2022/05/04 10:00:18;;;;;;;8.60;3.35;;;;;;;24.76;33.40;98772.94;4487499;32;20394;-81
2022/05/04 10:02:44;;;;;;;7.35;3.42;;;;;;;24.93;33.02;98771.03;4473335;32;20196;-81
2022/05/04 10:05:10;;;;;;;10.88;3.70;;;;;;;24.81;34.78;98767.88;4487643;32;20095;-81
2022/05/04 10:07:36;;;;;;;8.70;3.55;;;;;;;24.68;35.03;98770.31;4459967;32;20402;-81
2022/05/04 10:10:06;;;;;;;8.87;3.47;;;;;;;24.90;35.26;98772.22;4473304;32;20115;-81
2022/05/04 10:12:33;;;;;;;8.73;3.12;;;;;;;24.88;33.43;98765.34;4473116;32;20158;-81
2022/05/04 10:14:58;;;;;;;9.32;3.50;;;;;;;24.83;33.62;98765.84;4473156;32;20092;-81
2022/05/04 10:17:25;;;;;;;7.32;3.28;;;;;;;24.93;34.49;98761.09;4487249;32;20088;-81
2022/05/04 10:19:55;;;;;;;8.70;3.33;;;;;;;25.07;34.35;98755.97;4487403;32;20161;-81
2022/05/04 10:22:36;;;;;;;8.77;3.65;;;;;;;25.12;35.19;98753.56;4472955;32;20439;-81
2022/05/04 10:25:04;;;;;;;8.98;3.53;;;;;;;25.10;36.88;98750.22;4487408;32;20080;-81
2022/05/04 10:27:30;;;;;;;9.77;3.70;;;;;;;25.18;36.93;98744.78;4487339;32;20100;-81
2022/05/04 10:32:49;;;;;;;8.35;3.37;;;;;;;25.45;36.30;98743.44;4475128;32;20156;-81
2022/05/04 10:35:21;;;;;;;8.07;3.22;;;;;;;25.40;37.40;98740.47;4473009;32;20153;-81
2022/05/04 10:37:57;;;;;;;7.95;3.28;;;;;;;25.43;35.58;98736.53;4487060;32;20451;-81
2022/05/04 10:40:25;;;;;;;8.70;3.47;;;;;;;25.42;34.54;98741.13;4472890;32;20471;-81
2022/05/04 10:43:36;;;;;;;7.85;3.60;;;;;;;25.36;34.60;98741.81;4487225;32;20111;-81
2022/05/04 10:46:13;;;;;;;7.03;3.28;;;;;;;25.47;31.89;98737.84;4478788;32;20096;-81
2022/05/04 10:48:51;;;;;;;7.28;3.08;;;;;;;25.61;31.15;98728.13;4473008;32;20202;-81
2022/05/04 10:51:18;;;;;;;8.02;2.92;;;;;;;25.84;31.02;98728.09;4487304;32;20089;-81
2022/05/04 10:53:50;;;;;;;7.30;3.03;;;;;;;25.85;31.80;98727.91;4472873;32;20151;-81
2022/05/04 10:56:21;;;;;;;7.05;2.83;;;;;;;25.92;29.16;98729.91;4487434;32;20098;-81
2022/05/04 10:58:57;;;;;;;7.87;3.00;;;;;;;25.93;28.39;98732.44;4487296;32;20097;-81
2022/05/04 11:01:31;;;;;;;9.13;3.17;;;;;;;26.00;27.78;98730.69;4487435;32;20151;-81
2022/05/04 11:04:11;;;;;;;10.55;3.80;;;;;;;25.91;28.03;98731.78;4473083;32;20107;-81
2022/05/04 11:06:52;;;;;;;8.30;3.03;;;;;;;25.82;28.85;98720.19;4486991;32;20102;-81
2022/05/04 11:09:39;;;;;;;7.37;3.20;;;;;;;25.75;30.48;98723.78;4472840;32;20195;-81
2022/05/04 11:12:07;;;;;;;8.50;3.10;;;;;;;25.62;30.88;98730.66;4487278;32;20119;-81
2022/05/04 11:14:34;;;;;;;10.93;3.45;;;;;;;25.67;31.95;98727.41;4472950;32;20117;-81
2022/05/04 11:17:00;;;;;;;8.65;2.92;;;;;;;25.42;31.27;98727.63;4473047;32;20534;-81
2022/05/04 11:19:32;;;;;;;9.23;2.95;;;;;;;25.38;31.57;98728.16;4472870;32;20162;-81
2022/05/04 11:21:58;;;;;;;8.73;2.90;;;;;;;25.43;31.08;98725.75;4472924;32;20091;-81
2022/05/04 11:24:27;;;;;;;9.80;3.03;;;;;;;25.29;30.86;98724.69;4486893;32;20493;-81
2022/05/04 11:26:54;;;;;;;8.25;3.20;;;;;;;25.00;31.24;98722.66;4487062;32;20584;-81
2022/05/04 11:29:22;;;;;;;8.10;3.03;;;;;;;25.36;32.34;98731.00;4472583;32;20116;-81
2022/05/04 11:31:54;;;;;;;9.70;3.75;;;;;;;25.34;32.20;98730.34;4486849;32;20110;-81
2022/05/04 11:34:21;;;;;;;9.05;3.03;;;;;;;25.43;31.87;98726.59;4472952;32;20447;-81
2022/05/04 11:36:47;;;;;;;7.17;3.13;;;;;;;25.62;31.53;98732.53;4472434;32;20099;-81
2022/05/04 11:39:15;;;;;;;7.13;3.00;;;;;;;25.61;30.59;98730.84;4486658;32;20097;-81
2022/05/04 11:41:43;;;;;;;9.90;3.20;;;;;;;25.62;31.03;98725.25;4472547;32;20112;-81
2022/05/04 11:44:09;;;;;;;9.50;3.37;;;;;;;25.62;32.04;98725.25;4472183;32;20211;-81
2022/05/04 11:46:34;;;;;;;8.50;3.60;;;;;;;25.58;34.61;98723.94;4471804;32;20097;-81
2022/05/04 11:49:00;;;;;;;9.30;3.60;;;;;;;25.27;34.93;98726.72;4486603;32;20085;-81
2022/05/04 11:51:25;;;;;;;9.35;3.25;;;;;;;25.33;35.13;98727.87;4486494;32;20110;-81
2022/05/04 11:53:52;;;;;;;10.52;3.83;;;;;;;25.38;35.48;98730.84;4486491;32;20442;-81
2022/05/04 11:56:17;;;;;;;7.57;3.10;;;;;;;25.26;35.81;98725.88;4486621;32;20077;-81
2022/05/04 11:58:43;;;;;;;8.55;3.22;;;;;;;25.15;36.27;98728.09;4486334;32;20137;-81
2022/05/04 12:01:09;;;;;;;8.48;3.08;;;;;;;25.18;35.31;98725.91;4472056;32;20360;-81
2022/05/04 12:03:38;;;;;;;7.85;3.40;;;;;;;25.20;35.94;98728.44;4486378;32;20123;-81
2022/05/04 12:06:05;;;;;;;8.18;3.40;;;;;;;24.93;34.83;98728.75;4472169;32;20148;-81